地図

経路データ

SID SEASON NUMBER BASIN SUBBASIN NAME ISO_TIME NATURE LAT LON WMO_WIND WMO_PRES WMO_AGENCY TRACK_TYPE DIST2LAND LANDFALL IFLAG USA_AGENCY USA_ATCF_ID USA_LAT USA_LON USA_RECORD USA_STATUS USA_WIND USA_PRES USA_SSHS USA_R34_NE USA_R34_SE USA_R34_SW USA_R34_NW USA_R50_NE USA_R50_SE USA_R50_SW USA_R50_NW USA_R64_NE USA_R64_SE USA_R64_SW USA_R64_NW USA_POCI USA_ROCI USA_RMW USA_EYE TOKYO_LAT TOKYO_LON TOKYO_GRADE TOKYO_WIND TOKYO_PRES TOKYO_R50_DIR TOKYO_R50_LONG TOKYO_R50_SHORT TOKYO_R30_DIR TOKYO_R30_LONG TOKYO_R30_SHORT TOKYO_LAND CMA_LAT CMA_LON CMA_CAT CMA_WIND CMA_PRES HKO_LAT HKO_LON HKO_CAT HKO_WIND HKO_PRES NEWDELHI_LAT NEWDELHI_LON NEWDELHI_GRADE NEWDELHI_WIND NEWDELHI_PRES NEWDELHI_CI NEWDELHI_DP NEWDELHI_POCI REUNION_LAT REUNION_LON REUNION_TYPE REUNION_WIND REUNION_PRES REUNION_TNUM REUNION_CI REUNION_RMW REUNION_R34_NE REUNION_R34_SE REUNION_R34_SW REUNION_R34_NW REUNION_R50_NE REUNION_R50_SE REUNION_R50_SW REUNION_R50_NW REUNION_R64_NE REUNION_R64_SE REUNION_R64_SW REUNION_R64_NW BOM_LAT BOM_LON BOM_TYPE BOM_WIND BOM_PRES BOM_TNUM BOM_CI BOM_RMW BOM_R34_NE BOM_R34_SE BOM_R34_SW BOM_R34_NW BOM_R50_NE BOM_R50_SE BOM_R50_SW BOM_R50_NW BOM_R64_NE BOM_R64_SE BOM_R64_SW BOM_R64_NW BOM_ROCI BOM_POCI BOM_EYE BOM_POS_METHOD BOM_PRES_METHOD NADI_LAT NADI_LON NADI_CAT NADI_WIND NADI_PRES WELLINGTON_LAT WELLINGTON_LON WELLINGTON_WIND WELLINGTON_PRES DS824_LAT DS824_LON DS824_STAGE DS824_WIND DS824_PRES TD9636_LAT TD9636_LON TD9636_STAGE TD9636_WIND TD9636_PRES TD9635_LAT TD9635_LON TD9635_WIND TD9635_PRES TD9635_ROCI NEUMANN_LAT NEUMANN_LON NEUMANN_CLASS NEUMANN_WIND NEUMANN_PRES MLC_LAT MLC_LON MLC_CLASS MLC_WIND MLC_PRES USA_GUST BOM_GUST BOM_GUST_PER REUNION_GUST REUNION_GUST_PER USA_SEAHGT USA_SEARAD_NE USA_SEARAD_SE USA_SEARAD_SW USA_SEARAD_NW STORM_SPEED STORM_DIR
1967354S12057 1968 145 SI MM CARMEN 1967-12-19 18:00:00 TS -12.0000 56.8000 main 754 754 O________OO___ jtwc_sh SH061968 -12.0000 56.8000 -1 -12.0000 56.8000 TC -12.0000 56.8000 7 10 107
1967354S12057 1968 145 SI MM CARMEN 1967-12-19 21:00:00 TS -12.1508 57.3076 main 800 800 P________PP___ SH061968 -12.1602 57.3124 -1 -12.1602 57.3124 TC -12.1321 57.2980 7 10 106
1967354S12057 1968 145 SI MM CARMEN 1967-12-20 00:00:00 TS -12.2870 57.7923 main 851 851 O________OP___ jtwc_sh SH061968 -12.3000 57.8000 -1 -12.3000 57.8000 TC -12.2610 57.7770 7 9 105
1967354S12057 1968 145 SI MM CARMEN 1967-12-20 03:00:00 TS -12.3998 58.2309 main 863 842 P________PP___ SH061968 -12.4075 58.2375 -1 -12.4075 58.2375 TC -12.3844 58.2175 7 7 120
1967354S12057 1968 145 SI MM CARMEN 1967-12-20 06:00:00 TS -12.6429 58.4286 reunion main 842 821 O____O___OO_O_ jtwc_sh SH061968 -12.5000 58.6000 -1 -13.5000 57.4000 3 9.90000 -12.5000 58.6000 TC 25 -12.5000 58.6000 1 -13.5000 57.4000 TC 35 6 140
1967354S12057 1968 145 SI MM CARMEN 1967-12-20 09:00:00 TS -12.8360 58.6005 main 822 801 P____P___PP_P_ SH061968 -12.5999 58.8725 -1 -13.5376 57.7450 3 -12.5999 58.8725 TC 25 -12.6068 58.9117 1 -13.5376 57.7450 TC 35 5 136
1967354S12057 1968 145 SI MM CARMEN 1967-12-20 12:00:00 TS -13.0016 58.7817 reunion main 803 784 O____O___OP_O_ jtwc_sh SH061968 -12.7000 59.1000 -1 -13.6000 58.1000 99 9.90000 -12.7000 59.1000 TC 25 -12.7070 59.1677 1 -13.6000 58.1000 TC 35 5 129
1967354S12057 1968 145 SI MM CARMEN 1967-12-20 15:00:00 TS -13.1608 59.0069 main 784 779 P____P___PP_P_ SH061968 -12.8000 59.3575 -1 -13.7000 58.4649 99 -12.8000 59.3575 TC 25 -12.8038 59.3898 1 -13.7000 58.4649 TC 37 6 118
1967354S12057 1968 145 SI MM CARMEN 1967-12-20 18:00:00 TS -13.2600 59.2800 reunion main 779 779 O____O___OO_O_ jtwc_sh SH061968 -12.9000 59.6000 -1 -13.8000 58.8000 99 9.90000 -12.9000 59.6000 TC 25 -12.9000 59.6000 1 -13.8000 58.8000 TC 40 5 110
1967354S12057 1968 145 SI MM CARMEN 1967-12-20 21:00:00 TS -13.3364 59.5071 main 784 776 P____P___PP_P_ SH061968 -12.9999 59.8000 -1 -13.8574 59.0576 99 -12.9999 59.8000 TC 25 -12.9673 59.8204 1 -13.8574 59.0576 TC 40 5 109
1967354S12057 1968 145 SI MM CARMEN 1967-12-21 00:00:00 TS -13.4080 59.7271 reunion main 779 774 O____O___OP_O_ jtwc_sh SH061968 -13.1000 60.0000 -1 -13.9000 59.3000 99 9.90000 -13.1000 60.0000 TC 25 -13.0398 60.0356 1 -13.9000 59.3000 TC 40 5 107
1967354S12057 1968 145 SI MM CARMEN 1967-12-21 03:00:00 TS -13.4764 59.9737 main 778 774 P____P___PP_P_ SH061968 -13.1775 60.2351 -1 -13.9424 59.5701 99 -13.1775 60.2351 TC 25 -13.1423 60.2580 1 -13.9424 59.5701 TC 42 5 108
1967354S12057 1968 145 SI MM CARMEN 1967-12-21 06:00:00 TS -13.5800 60.2600 reunion main 778 771 O____O___OO_O_ jtwc_sh SH061968 -13.3000 60.5000 -1 -14.0000 59.9000 3 9.90000 -13.3000 60.5000 TC 25 -13.3000 60.5000 1 -14.0000 59.9000 TC 45 7 112
1967354S12057 1968 145 SI MM CARMEN 1967-12-21 09:00:00 TS -13.7331 60.6122 main 779 768 P____P___PP_P_ SH061968 -13.5125 60.7925 -1 -14.0551 60.3427 3 -13.5125 60.7925 TC 25 -13.5304 60.7904 1 -14.0551 60.3427 TC 47 8 119
1967354S12057 1968 145 SI MM CARMEN 1967-12-21 12:00:00 TS -13.9635 60.9800 reunion main 767 753 O____O___OP_O_ jtwc_sh SH061968 -13.8000 61.1000 -1 -14.2000 60.8000 99 9.90000 -13.8000 61.1000 TC 25 -13.8177 61.0998 1 -14.2000 60.8000 TC 50 9 130
1967354S12057 1968 145 SI MM CARMEN 1967-12-21 15:00:00 TS -14.3002 61.3138 main 753 735 P____P___PP_P_ SH061968 -14.1350 61.4075 -1 -14.5424 61.1723 99 -14.1350 61.4075 TC 25 -14.1461 61.4093 1 -14.5424 61.1723 TC 52 9 138
1967354S12057 1968 145 SI MM CARMEN 1967-12-21 18:00:00 TS -14.6600 61.6200 reunion main 732 726 O____O___OO_O_ jtwc_sh SH061968 -14.5000 61.7000 -1 -14.9000 61.5000 99 9.90000 -14.5000 61.7000 TC 25 -14.5000 61.7000 1 -14.9000 61.5000 TC 55 9 137
1967354S12057 1968 145 SI MM CARMEN 1967-12-21 21:00:00 TS -14.9252 61.9077 main 732 719 P____P___PP_P_ SH061968 -14.8425 61.9651 -1 -15.0500 61.8228 99 -14.8425 61.9651 TC 25 -14.8412 61.9629 1 -15.0500 61.8228 TC 57 8 136
1967354S12057 1968 145 SI MM CARMEN 1967-12-22 00:00:00 TS -15.2010 62.1605 reunion main 726 708 O____O___OP_O_ jtwc_sh SH061968 -15.2000 62.2000 -1 -15.2000 62.1000 99 9.90000 -15.2000 62.2000 TC 25 -15.2049 62.2026 1 -15.2000 62.1000 TC 60 8 145
1967354S12057 1968 145 SI MM CARMEN 1967-12-22 03:00:00 TS -15.5662 62.3752 main 707 691 P____P___PP_P_ SH061968 -15.5850 62.4151 -1 -15.5349 62.3150 99 -15.5850 62.4151 TC 30 -15.5912 62.4160 1 -15.5349 62.3150 TC 62 9 153
1967354S12057 1968 145 SI MM CARMEN 1967-12-22 06:00:00 TS -15.9600 62.5600 reunion main 691 677 O____O___OO_O_ jtwc_sh SH061968 -16.0000 62.6000 -1 -15.9000 62.5000 4 9.90000 -16.0000 62.6000 TC 35 -16.0000 62.6000 2 -15.9000 62.5000 TC 65 8 155
1967354S12057 1968 145 SI MM CARMEN 1967-12-22 09:00:00 TS -16.3235 62.7490 main 677 667 P____P___PP_P_ SH061968 -16.4425 62.7650 -1 -16.1500 62.7225 4 -16.4425 62.7650 TC 35 -16.4324 62.7701 2 -16.1500 62.7225 TC 67 8 156
1967354S12057 1968 145 SI MM CARMEN 1967-12-22 12:00:00 TS -16.6970 62.9020 reunion main 667 651 O____O___OP_O_ jtwc_sh SH061968 -16.9000 62.9000 -1 -16.4000 62.9000 99 9.90000 -16.9000 62.9000 TC 35 -16.8849 62.9100 2 -16.4000 62.9000 TC 70 8 163
1967354S12057 1968 145 SI MM CARMEN 1967-12-22 15:00:00 TS -17.1000 63.0020 main 651 634 P____P___PP_P_ SH061968 -17.3500 63.0150 -1 -16.7275 62.9801 99 -17.3500 63.0150 TC 35 -17.3450 63.0200 2 -16.7275 62.9801 TC 72 8 169
1967354S12057 1968 145 SI MM CARMEN 1967-12-22 18:00:00 TS -17.5200 63.0600 reunion main 638 618 O____O___OO_O_ jtwc_sh SH061968 -17.8000 63.1000 -1 -17.1000 63.0000 99 9.90000 -17.8000 63.1000 TC 35 -17.8000 63.1000 2 -17.1000 63.0000 TC 75 9 174
1967354S12057 1968 145 SI MM CARMEN 1967-12-22 21:00:00 TS -17.9643 63.1060 main 613 595 P____P___PP_P_ SH061968 -18.2575 63.1650 -1 -17.5150 63.0150 99 -18.2575 63.1650 TC 35 -18.2768 63.1702 2 -17.5150 63.0150 TC 77 9 177
1967354S12057 1968 145 SI MM CARMEN 1967-12-23 00:00:00 TS -18.3880 63.1220 reunion main 595 583 O____O___OP_O_ jtwc_sh SH061968 -18.7000 63.2000 -1 -17.9000 63.0000 99 9.90000 -18.7000 63.2000 TC 35 -18.7399 63.2102 2 -17.9000 63.0000 TC 80 8 179
1967354S12057 1968 145 SI MM CARMEN 1967-12-23 03:00:00 TS -18.7556 63.1130 main 580 573 P____P___PP_P_ SH061968 -19.1375 63.2150 -1 -18.1725 62.9575 99 -19.1375 63.2150 TC 35 -19.1580 63.2201 2 -18.1725 62.9575 TC 82 7 184
1967354S12057 1968 145 SI MM CARMEN 1967-12-23 06:00:00 TS -19.0600 63.0800 reunion main 570 555 O____O___OO_O_ jtwc_sh SH061968 -19.5000 63.2000 -1 -18.4000 62.9000 4 9.90000 -19.5000 63.2000 TC 35 -19.5000 63.2000 2 -18.4000 62.9000 TC 85 6 187
1967354S12057 1968 145 SI MM CARMEN 1967-12-23 09:00:00 TS -19.3136 63.0352 main 555 550 P____P___PP_P_ SH061968 -19.7450 63.1650 -1 -18.6725 62.8500 4 -19.7450 63.1650 TC 35 -19.7331 63.1458 2 -18.6725 62.8500 TC 85 5 194
1967354S12057 1968 145 SI MM CARMEN 1967-12-23 12:00:00 TS -19.4980 62.9730 reunion main 550 538 O____O___OP_O_ jtwc_sh SH061968 -19.9000 63.1000 -1 -18.9000 62.8000 99 9.90000 -19.9000 63.1000 TC 35 -19.8900 63.0652 2 -18.9000 62.8000 TC 85 3 204
1967354S12057 1968 145 SI MM CARMEN 1967-12-23 15:00:00 TS -19.6094 62.8954 main 538 526 P____P___PP_P_ SH061968 -20.0150 62.9925 -1 -19.0075 62.7574 99 -20.0150 62.9925 TC 50 -20.0019 62.9770 2 -19.0075 62.7574 TC 85 2 215
1967354S12057 1968 145 SI MM CARMEN 1967-12-23 18:00:00 TS -19.7000 62.8200 reunion main 526 525 O____O___OO_O_ jtwc_sh SH061968 -20.1000 62.9000 -1 -19.1000 62.7000 99 9.90000 -20.1000 62.9000 TC 65 -20.1000 62.9000 4 -19.1000 62.7000 TC 85 3 207
1967354S12057 1968 145 SI MM CARMEN 1967-12-23 21:00:00 TS -19.8432 62.7715 main 525 512 P____P___PP_P_ SH061968 -20.1925 62.8925 -1 -19.3075 62.6001 99 -20.1925 62.8925 TC 65 -20.2159 62.8726 4 -19.3075 62.6001 TC 85 3 195
1967354S12057 1968 145 SI MM CARMEN 1967-12-24 00:00:00 TS -19.9855 62.7314 reunion main 512 511 O____O___OP_O_ jtwc_sh SH061968 -20.3000 62.9000 -1 -19.5000 62.5000 99 9.90000 -20.3000 62.9000 TC 65 -20.3274 62.8572 4 -19.5000 62.5000 TC 85 3 198
1967354S12057 1968 145 SI MM CARMEN 1967-12-24 03:00:00 TS -20.0870 62.6906 main 511 500 P____P___PP_P_ SH061968 -20.4350 62.8650 -1 -19.5575 62.4424 99 -20.4350 62.8650 TC 65 -20.4503 62.8382 4 -19.5575 62.4424 TC 82 2 202
1967354S12057 1968 145 SI MM CARMEN 1967-12-24 06:00:00 TS -20.2000 62.6400 reunion main 500 500 O____O___OO_O_ jtwc_sh SH061968 -20.6000 62.8000 -1 -19.6000 62.4000 4 9.90000 -20.6000 62.8000 TC 65 -20.6000 62.8000 4 -19.6000 62.4000 TC 80 3 203
1967354S12057 1968 145 SI MM CARMEN 1967-12-24 09:00:00 TS -20.3686 62.5649 main 500 490 P____P___PP_P_ SH061968 -20.7850 62.7075 -1 -19.7425 62.3500 4 -20.7850 62.7075 TC 65 -20.7882 62.7096 4 -19.7425 62.3500 TC 80 4 202
1967354S12057 1968 145 SI MM CARMEN 1967-12-24 12:00:00 TS -20.5610 62.4801 reunion main 490 480 O____O___OP_O_ jtwc_sh SH061968 -21.0000 62.6000 -1 -19.9000 62.3000 99 9.90000 -21.0000 62.6000 TC 65 -21.0051 62.6003 4 -19.9000 62.3000 TC 80 4 202
1967354S12057 1968 145 SI MM CARMEN 1967-12-24 15:00:00 TS -20.7489 62.3952 main 481 473 P____P___PP_P_ SH061968 -21.2350 62.4925 -1 -20.0150 62.2500 99 -21.2350 62.4925 TC 65 -21.2444 62.4908 4 -20.0150 62.2500 TC 77 4 202
1967354S12057 1968 145 SI MM CARMEN 1967-12-24 18:00:00 TS -20.9400 62.3200 reunion main 473 473 O____O___OO_O_ jtwc_sh SH061968 -21.5000 62.4000 -1 -20.1000 62.2000 99 9.90000 -21.5000 62.4000 TC 65 -21.5000 62.4000 4 -20.1000 62.2000 TC 75 4 198
1967354S12057 1968 145 SI MM CARMEN 1967-12-24 21:00:00 TS -21.1307 62.2584 main 476 468 P____P___PP_P_ SH061968 -21.8000 62.3350 -1 -20.1425 62.1425 99 -21.8000 62.3350 TC 65 -21.7687 62.3372 4 -20.1425 62.1425 TC 72 4 194
1967354S12057 1968 145 SI MM CARMEN 1967-12-25 00:00:00 TS -21.3300 62.2195 reunion main 470 470 O____O___OP_O_ jtwc_sh SH061968 -22.1000 62.3000 -1 -20.2000 62.1000 99 9.90000 -22.1000 62.3000 TC 65 -22.0499 62.2976 4 -20.2000 62.1000 TC 70 4 187
1967354S12057 1968 145 SI MM CARMEN 1967-12-25 03:00:00 TS -21.5372 62.2108 main 476 476 P____P___PP_P_ SH061968 -22.3575 62.2850 -1 -20.3200 62.1000 99 -22.3575 62.2850 TC 65 -22.3312 62.2842 4 -20.3200 62.1000 TC 70 4 0
1967354S12057 1968 145 SI MM CARMEN 1967-12-25 06:00:00 TS -21.7600 62.2200 reunion main 486 486 O____O___OO_O_ jtwc_sh SH061968 -22.6000 62.3000 -1 -20.5000 62.1000 4 9.90000 -22.6000 62.3000 TC 65 -22.6000 62.3000 4 -20.5000 62.1000 TC 70 5 0
1967354S12057 1968 145 SI MM CARMEN 1967-12-25 09:00:00 TS -22.0071 62.2216 main 494 494 P____P___PP_P_ SH061968 -22.8575 62.3350 -1 -20.7425 62.0501 4 -22.8575 62.3350 TC 65 -22.8353 62.3381 4 -20.7425 62.0501 TC 65 5 0
1967354S12057 1968 145 SI MM CARMEN 1967-12-25 12:00:00 TS -22.2515 62.2410 reunion main 507 507 O____O___OP_O_ jtwc_sh SH061968 -23.1000 62.4000 -1 -21.0000 62.0000 99 9.90000 -23.1000 62.4000 TC 65 -23.0575 62.4050 4 -21.0000 62.0000 TC 60 4 173
1967354S12057 1968 145 SI MM CARMEN 1967-12-25 15:00:00 TS -22.4492 62.2839 main 521 521 P____P___PP_P_ SH061968 -23.3000 62.4925 -1 -21.1850 61.9701 99 -23.3000 62.4925 TC 65 -23.2759 62.4944 4 -21.1850 61.9701 TC 60 4 164
1967354S12057 1968 145 SI MM CARMEN 1967-12-25 18:00:00 TS -22.6600 62.3600 reunion main 544 544 O____O___OO_O_ jtwc_sh SH061968 -23.5000 62.6000 -1 -21.4000 62.0000 99 9.90000 -23.5000 62.6000 TC 65 -23.5000 62.6000 4 -21.4000 62.0000 TC 60 5 161
1967354S12057 1968 145 SI MM CARMEN 1967-12-25 21:00:00 TS -22.9355 62.4656 main 563 563 P____P___PP_P_ SH061968 -23.7425 62.6926 -1 -21.7350 62.1199 99 -23.7425 62.6926 TC 65 -23.7225 62.7028 4 -21.7350 62.1199 TC 57 6 159
1967354S12057 1968 145 SI MM CARMEN 1967-12-26 00:00:00 TS -23.2310 62.6041 reunion main 588 588 O____O___OP_O_ jtwc_sh SH061968 -24.0000 62.8000 -1 -22.1000 62.3000 99 9.90000 -24.0000 62.8000 TC 65 -23.9550 62.8205 4 -22.1000 62.3000 TC 55 6 154
1967354S12057 1968 145 SI MM CARMEN 1967-12-26 03:00:00 TS -23.4930 62.7587 main 623 623 P____P___PP_P_ SH061968 -24.2350 62.9426 -1 -22.3924 62.4778 99 -24.2350 62.9426 TC 65 -24.2100 62.9529 4 -22.3924 62.4778 TC 52 6 151
1967354S12057 1968 145 SI MM CARMEN 1967-12-26 06:00:00 TS -23.7800 62.9400 reunion main 650 650 O____O___OO_O_ jtwc_sh SH061968 -24.5000 63.1000 -1 -22.7000 62.7000 3 9.90000 -24.5000 63.1000 TC 65 -24.5000 63.1000 4 -22.7000 62.7000 TC 50 7 151
1967354S12057 1968 145 SI MM CARMEN 1967-12-26 09:00:00 TS -24.1133 63.1293 main 685 685 P____P___PP_P_ SH061968 -24.8275 63.2426 -1 -23.0323 62.9484 3 -24.8275 63.2426 TC 65 -24.8472 63.2644 4 -23.0323 62.9484 TC 47 8 152
1967354S12057 1968 145 SI MM CARMEN 1967-12-26 12:00:00 TS -24.5255 63.3684 reunion main 736 736 O____O___OP_O_ jtwc_sh SH061968 -25.2000 63.4000 -1 -23.5000 63.3000 99 9.90000 -25.2000 63.4000 TC 65 -25.2276 63.4422 4 -23.5000 63.3000 TC 45 10 151
1967354S12057 1968 145 SI MM CARMEN 1967-12-26 15:00:00 TS -25.0308 63.6780 main 794 794 P____P___PP_P_ SH061968 -25.6000 63.5999 -1 -24.1673 63.7832 99 -25.6000 63.5999 TC 65 -25.6191 63.6239 4 -24.1673 63.7832 TC 42 12 150
1967354S12057 1968 145 SI MM CARMEN 1967-12-26 18:00:00 TS -25.6000 64.0400 reunion main 860 860 O____O___OO_O_ jtwc_sh SH061968 -26.0000 63.8000 -1 -25.0000 64.4000 99 9.90000 -26.0000 63.8000 TC 65 -26.0000 63.8000 4 -25.0000 64.4000 TC 40 14 150
1967354S12057 1968 145 SI MM CARMEN 1967-12-26 21:00:00 TS -26.1998 64.4322 main 934 934 P____P___PP_P_ SH061968 -26.3650 63.9577 -1 -25.9579 65.1413 99 -26.3650 63.9577 TC 65 -26.3534 63.9631 4 -25.9579 65.1413 TC 37 14 146
1967354S12057 1968 145 SI MM CARMEN 1967-12-27 00:00:00 TS -26.7910 64.9497 reunion main 1015 1015 O____O___OP_O_ jtwc_sh SH061968 -26.7000 64.1000 -1 -26.9000 65.9000 99 9.90000 -26.7000 64.1000 TC 65 -26.6825 64.1148 4 -26.9000 65.9000 TC 35 15 140
1967354S12057 1968 145 SI MM CARMEN 1967-12-27 03:00:00 TS -27.3523 65.5336 main 1104 1104 P____P___PP_P_ SH061968 -27.0075 64.2473 -1 -27.6140 66.4954 99 -27.0075 64.2473 TC 65 -26.9953 64.2591 4 -27.6140 66.4954 TC 32 18 135
1967354S12057 1968 145 SI MM CARMEN 1967-12-27 06:00:00 MX -28.0273 66.3636 reunion main 1215 1215 O____O___OO_O_ jtwc_sh SH061968 -27.3000 64.4000 -1 -28.3000 67.1000 5 9.90000 -27.3000 64.4000 TC 65 -27.3000 64.4000 4 -28.3000 67.1000 EX 30 27 130
1967354S12057 1968 145 SI MM CARMEN 1967-12-27 09:00:00 ET -29.1049 67.8635 main 1406 1406 _____P______P_ SH061968 -1 -29.1049 67.8635 5 TC 4 -29.1049 67.8635 EX 30 28 134
1967354S12057 1968 145 SI MM CARMEN 1967-12-27 12:00:00 ET -30.0000 68.7000 reunion main 1530 1530 _____O______O_ -1 -30.0000 68.7000 99 9.90000 4 -30.0000 68.7000 EX 30 24 142
1967354S12057 1968 145 SI MM CARMEN 1967-12-27 15:00:00 ET -30.9768 69.5290 main 1662 1662 _____P______P_ -1 -30.9768 69.5290 99 4 -30.9768 69.5290 EX 30 25 144
1967354S12057 1968 145 SI MM CARMEN 1967-12-27 18:00:00 ET -32.0000 70.4000 reunion main 1800 1778 _____O______O_ -1 -32.0000 70.4000 99 9.90000 -32.0000 70.4000 EX 30 25 143
1967354S12057 1968 145 SI MM CARMEN 1967-12-27 21:00:00 ET -32.9766 71.3159 main 1768 1678 _____P______P_ -1 -32.9766 71.3159 99 -32.9766 71.3159 EX 27 26 141
1967354S12057 1968 145 SI MM CARMEN 1967-12-28 00:00:00 ET -34.0000 72.3000 reunion main 1668 1563 _____O______O_ -1 -34.0000 72.3000 99 9.90000 -34.0000 72.3000 EX 25 27 142
1967354S12057 1968 145 SI MM CARMEN 1967-12-28 03:00:00 ET -35.1222 73.3674 main 1565 1468 _____P______P_ -1 -35.1222 73.3674 99 -35.1222 73.3674 EX 22 29 142
1967354S12057 1968 145 SI MM CARMEN 1967-12-28 06:00:00 MX -36.3000 74.5000 reunion main 1459 _____O______O_ -1 -36.3000 74.5000 6 9.90000 -36.3000 74.5000 EX 20 30 142

IBTrACS Databaseについて

本データベースは、米国NOAAが公開する1842年以降の世界の熱帯低気圧のベストトラックデータアーカイブInternational Best Track Archive for Climate Stewardship (IBTrACS)を、ウェブで閲覧しやすい形式に変換したものです。

最終更新日:2021-10-19